sensor_id;sensor_type;location;lat;lon;timestamp;P1;durP1;ratioP1;P2;durP2;ratioP2
5295;SDS011;2670;42.720;23.336;2022-08-01T00:00:43;9.20;;;7.77;;
5295;SDS011;2670;42.720;23.336;2022-08-01T00:03:10;8.50;;;7.70;;
5295;SDS011;2670;42.720;23.336;2022-08-01T00:05:37;8.37;;;7.47;;
5295;SDS011;2670;42.720;23.336;2022-08-01T00:08:05;8.80;;;7.90;;
5295;SDS011;2670;42.720;23.336;2022-08-01T00:10:32;7.97;;;7.17;;
5295;SDS011;2670;42.720;23.336;2022-08-01T00:12:59;10.90;;;7.30;;
5295;SDS011;2670;42.720;23.336;2022-08-01T00:15:25;10.77;;;7.70;;
5295;SDS011;2670;42.720;23.336;2022-08-01T00:17:52;9.20;;;7.80;;
5295;SDS011;2670;42.720;23.336;2022-08-01T00:20:19;9.20;;;7.73;;
5295;SDS011;2670;42.720;23.336;2022-08-01T00:22:46;10.43;;;7.80;;
5295;SDS011;2670;42.720;23.336;2022-08-01T00:25:14;9.30;;;8.40;;
5295;SDS011;2670;42.720;23.336;2022-08-01T00:27:40;9.63;;;8.67;;
5295;SDS011;2670;42.720;23.336;2022-08-01T00:30:07;9.57;;;7.40;;
5295;SDS011;2670;42.720;23.336;2022-08-01T00:32:35;9.23;;;8.03;;
5295;SDS011;2670;42.720;23.336;2022-08-01T00:35:01;11.60;;;8.33;;
5295;SDS011;2670;42.720;23.336;2022-08-01T00:37:28;9.47;;;8.00;;
5295;SDS011;2670;42.720;23.336;2022-08-01T00:39:55;10.70;;;7.97;;
5295;SDS011;2670;42.720;23.336;2022-08-01T00:42:23;9.70;;;7.90;;
5295;SDS011;2670;42.720;23.336;2022-08-01T00:44:50;14.10;;;8.30;;
5295;SDS011;2670;42.720;23.336;2022-08-01T00:47:17;8.63;;;7.80;;
5295;SDS011;2670;42.720;23.336;2022-08-01T00:49:43;9.23;;;8.27;;
5295;SDS011;2670;42.720;23.336;2022-08-01T00:52:10;11.30;;;8.23;;
5295;SDS011;2670;42.720;23.336;2022-08-01T00:54:37;8.83;;;7.50;;
5295;SDS011;2670;42.720;23.336;2022-08-01T00:57:05;10.30;;;6.93;;
5295;SDS011;2670;42.720;23.336;2022-08-01T00:59:33;8.13;;;7.03;;
5295;SDS011;2670;42.720;23.336;2022-08-01T01:02:00;9.87;;;6.87;;
5295;SDS011;2670;42.720;23.336;2022-08-01T01:04:30;8.70;;;7.33;;
5295;SDS011;2670;42.720;23.336;2022-08-01T01:06:58;10.40;;;7.60;;
5295;SDS011;2670;42.720;23.336;2022-08-01T01:09:33;7.83;;;6.83;;
5295;SDS011;2670;42.720;23.336;2022-08-01T01:12:13;8.63;;;7.03;;
5295;SDS011;2670;42.720;23.336;2022-08-01T01:14:49;8.00;;;7.10;;
5295;SDS011;2670;42.720;23.336;2022-08-01T01:17:21;8.70;;;6.77;;
5295;SDS011;2670;42.720;23.336;2022-08-01T01:19:54;9.83;;;6.20;;
5295;SDS011;2670;42.720;23.336;2022-08-01T01:22:31;7.63;;;6.27;;
5295;SDS011;2670;42.720;23.336;2022-08-01T01:25:10;8.13;;;6.40;;
5295;SDS011;2670;42.720;23.336;2022-08-01T01:27:51;7.20;;;6.10;;
5295;SDS011;2670;42.720;23.336;2022-08-01T01:30:29;6.73;;;5.67;;
5295;SDS011;2670;42.720;23.336;2022-08-01T01:32:58;10.23;;;6.83;;
5295;SDS011;2670;42.720;23.336;2022-08-01T01:35:29;7.20;;;5.97;;
5295;SDS011;2670;42.720;23.336;2022-08-01T01:38:00;6.20;;;5.33;;
5295;SDS011;2670;42.720;23.336;2022-08-01T01:40:30;9.97;;;6.50;;
5295;SDS011;2670;42.720;23.336;2022-08-01T01:42:58;7.20;;;6.27;;
5295;SDS011;2670;42.720;23.336;2022-08-01T01:45:25;10.60;;;6.53;;
5295;SDS011;2670;42.720;23.336;2022-08-01T01:47:54;8.60;;;6.83;;
5295;SDS011;2670;42.720;23.336;2022-08-01T01:50:24;6.20;;;5.53;;
5295;SDS011;2670;42.720;23.336;2022-08-01T01:52:53;7.33;;;5.53;;
5295;SDS011;2670;42.720;23.336;2022-08-01T01:55:21;7.10;;;6.40;;
5295;SDS011;2670;42.720;23.336;2022-08-01T01:57:51;8.40;;;6.60;;
5295;SDS011;2670;42.720;23.336;2022-08-01T02:00:20;7.27;;;6.00;;
5295;SDS011;2670;42.720;23.336;2022-08-01T02:02:49;7.27;;;6.10;;
5295;SDS011;2670;42.720;23.336;2022-08-01T02:05:20;6.80;;;6.10;;
5295;SDS011;2670;42.720;23.336;2022-08-01T02:07:48;6.70;;;5.70;;
5295;SDS011;2670;42.720;23.336;2022-08-01T02:10:17;6.73;;;6.03;;
5295;SDS011;2670;42.720;23.336;2022-08-01T02:12:45;6.67;;;6.00;;
5295;SDS011;2670;42.720;23.336;2022-08-01T02:15:15;7.37;;;5.90;;
5295;SDS011;2670;42.720;23.336;2022-08-01T02:17:44;6.53;;;5.83;;
5295;SDS011;2670;42.720;23.336;2022-08-01T02:20:13;10.57;;;6.30;;
5295;SDS011;2670;42.720;23.336;2022-08-01T02:22:44;7.53;;;6.40;;
5295;SDS011;2670;42.720;23.336;2022-08-01T02:25:15;7.30;;;6.53;;
5295;SDS011;2670;42.720;23.336;2022-08-01T02:27:56;6.80;;;5.43;;
5295;SDS011;2670;42.720;23.336;2022-08-01T02:30:30;7.90;;;6.27;;
5295;SDS011;2670;42.720;23.336;2022-08-01T02:33:02;8.10;;;7.00;;
5295;SDS011;2670;42.720;23.336;2022-08-01T02:35:32;12.90;;;5.53;;
5295;SDS011;2670;42.720;23.336;2022-08-01T02:38:03;6.07;;;5.20;;
5295;SDS011;2670;42.720;23.336;2022-08-01T02:40:33;6.13;;;4.50;;
5295;SDS011;2670;42.720;23.336;2022-08-01T02:43:03;7.20;;;5.13;;
5295;SDS011;2670;42.720;23.336;2022-08-01T02:45:32;5.47;;;4.97;;
5295;SDS011;2670;42.720;23.336;2022-08-01T02:48:03;6.20;;;5.07;;
5295;SDS011;2670;42.720;23.336;2022-08-01T02:50:36;9.23;;;4.50;;
5295;SDS011;2670;42.720;23.336;2022-08-01T02:53:06;6.17;;;5.13;;
5295;SDS011;2670;42.720;23.336;2022-08-01T02:55:35;8.97;;;5.70;;
5295;SDS011;2670;42.720;23.336;2022-08-01T02:58:04;8.77;;;4.90;;
5295;SDS011;2670;42.720;23.336;2022-08-01T03:00:34;10.63;;;5.80;;
5295;SDS011;2670;42.720;23.336;2022-08-01T03:03:03;10.00;;;6.53;;
5295;SDS011;2670;42.720;23.336;2022-08-01T03:05:34;10.03;;;5.80;;
5295;SDS011;2670;42.720;23.336;2022-08-01T03:08:02;5.80;;;5.20;;
5295;SDS011;2670;42.720;23.336;2022-08-01T03:10:34;6.60;;;5.70;;
5295;SDS011;2670;42.720;23.336;2022-08-01T03:13:04;8.30;;;5.37;;
5295;SDS011;2670;42.720;23.336;2022-08-01T03:15:33;8.40;;;5.17;;
5295;SDS011;2670;42.720;23.336;2022-08-01T03:18:03;10.33;;;5.80;;
5295;SDS011;2670;42.720;23.336;2022-08-01T03:20:33;7.43;;;5.67;;
5295;SDS011;2670;42.720;23.336;2022-08-01T03:23:01;9.20;;;5.60;;
5295;SDS011;2670;42.720;23.336;2022-08-01T03:25:30;19.53;;;6.47;;
5295;SDS011;2670;42.720;23.336;2022-08-01T03:28:01;15.07;;;6.03;;
5295;SDS011;2670;42.720;23.336;2022-08-01T03:30:30;12.80;;;6.33;;
5295;SDS011;2670;42.720;23.336;2022-08-01T03:32:59;9.60;;;5.60;;
5295;SDS011;2670;42.720;23.336;2022-08-01T03:35:28;25.30;;;6.70;;
5295;SDS011;2670;42.720;23.336;2022-08-01T03:37:57;13.60;;;7.00;;
5295;SDS011;2670;42.720;23.336;2022-08-01T03:40:28;11.17;;;6.43;;
5295;SDS011;2670;42.720;23.336;2022-08-01T03:43:04;18.17;;;7.57;;
5295;SDS011;2670;42.720;23.336;2022-08-01T03:45:34;20.17;;;6.80;;
5295;SDS011;2670;42.720;23.336;2022-08-01T03:48:05;7.20;;;6.00;;
5295;SDS011;2670;42.720;23.336;2022-08-01T03:50:37;10.90;;;6.17;;
5295;SDS011;2670;42.720;23.336;2022-08-01T03:53:07;17.13;;;5.93;;
5295;SDS011;2670;42.720;23.336;2022-08-01T03:55:36;14.73;;;6.30;;
5295;SDS011;2670;42.720;23.336;2022-08-01T03:58:06;20.90;;;6.70;;
5295;SDS011;2670;42.720;23.336;2022-08-01T04:00:35;19.63;;;6.47;;
5295;SDS011;2670;42.720;23.336;2022-08-01T04:03:05;11.63;;;5.90;;
5295;SDS011;2670;42.720;23.336;2022-08-01T04:05:33;12.47;;;6.07;;
5295;SDS011;2670;42.720;23.336;2022-08-01T04:08:01;18.93;;;6.07;;
5295;SDS011;2670;42.720;23.336;2022-08-01T04:10:28;13.90;;;6.67;;
5295;SDS011;2670;42.720;23.336;2022-08-01T04:12:55;9.13;;;6.70;;
5295;SDS011;2670;42.720;23.336;2022-08-01T04:15:23;16.00;;;6.70;;
5295;SDS011;2670;42.720;23.336;2022-08-01T04:17:50;15.30;;;6.20;;
5295;SDS011;2670;42.720;23.336;2022-08-01T04:20:17;15.20;;;6.30;;
5295;SDS011;2670;42.720;23.336;2022-08-01T04:22:43;13.07;;;6.00;;
5295;SDS011;2670;42.720;23.336;2022-08-01T04:25:11;12.20;;;6.80;;
5295;SDS011;2670;42.720;23.336;2022-08-01T04:27:42;13.67;;;7.40;;
5295;SDS011;2670;42.720;23.336;2022-08-01T04:30:12;9.73;;;7.00;;
5295;SDS011;2670;42.720;23.336;2022-08-01T04:32:41;14.53;;;6.80;;
5295;SDS011;2670;42.720;23.336;2022-08-01T04:35:11;12.03;;;6.40;;
5295;SDS011;2670;42.720;23.336;2022-08-01T04:37:41;18.93;;;7.10;;
5295;SDS011;2670;42.720;23.336;2022-08-01T04:40:10;13.90;;;5.90;;
5295;SDS011;2670;42.720;23.336;2022-08-01T04:42:38;26.53;;;7.10;;
5295;SDS011;2670;42.720;23.336;2022-08-01T04:45:06;13.37;;;7.50;;
5295;SDS011;2670;42.720;23.336;2022-08-01T04:47:34;24.97;;;7.87;;
5295;SDS011;2670;42.720;23.336;2022-08-01T04:50:05;24.83;;;7.03;;
5295;SDS011;2670;42.720;23.336;2022-08-01T04:52:33;16.20;;;6.77;;
5295;SDS011;2670;42.720;23.336;2022-08-01T04:55:00;22.73;;;7.17;;
5295;SDS011;2670;42.720;23.336;2022-08-01T04:57:28;15.43;;;5.70;;
5295;SDS011;2670;42.720;23.336;2022-08-01T04:59:54;20.60;;;7.07;;
5295;SDS011;2670;42.720;23.336;2022-08-01T05:02:22;17.67;;;6.23;;
5295;SDS011;2670;42.720;23.336;2022-08-01T05:04:52;13.23;;;6.37;;
5295;SDS011;2670;42.720;23.336;2022-08-01T05:07:21;25.47;;;6.43;;
5295;SDS011;2670;42.720;23.336;2022-08-01T05:09:48;16.70;;;6.70;;
5295;SDS011;2670;42.720;23.336;2022-08-01T05:12:15;16.20;;;6.33;;
5295;SDS011;2670;42.720;23.336;2022-08-01T05:14:43;15.43;;;6.20;;
5295;SDS011;2670;42.720;23.336;2022-08-01T05:17:10;12.50;;;7.10;;
5295;SDS011;2670;42.720;23.336;2022-08-01T05:19:37;12.83;;;6.17;;
5295;SDS011;2670;42.720;23.336;2022-08-01T05:22:06;17.33;;;5.50;;
5295;SDS011;2670;42.720;23.336;2022-08-01T05:24:35;12.63;;;6.30;;
5295;SDS011;2670;42.720;23.336;2022-08-01T05:27:03;10.23;;;6.13;;
5295;SDS011;2670;42.720;23.336;2022-08-01T05:29:31;11.07;;;6.00;;
5295;SDS011;2670;42.720;23.336;2022-08-01T05:31:58;8.20;;;5.63;;
5295;SDS011;2670;42.720;23.336;2022-08-01T05:34:25;11.63;;;5.60;;
5295;SDS011;2670;42.720;23.336;2022-08-01T05:36:53;7.57;;;5.33;;
5295;SDS011;2670;42.720;23.336;2022-08-01T05:39:19;11.53;;;5.73;;
5295;SDS011;2670;42.720;23.336;2022-08-01T05:41:47;8.13;;;4.90;;
5295;SDS011;2670;42.720;23.336;2022-08-01T05:44:14;6.63;;;4.33;;
5295;SDS011;2670;42.720;23.336;2022-08-01T05:46:41;9.03;;;4.90;;
5295;SDS011;2670;42.720;23.336;2022-08-01T05:49:08;7.23;;;4.63;;
5295;SDS011;2670;42.720;23.336;2022-08-01T05:51:35;5.10;;;4.20;;
5295;SDS011;2670;42.720;23.336;2022-08-01T05:54:02;6.87;;;4.20;;
5295;SDS011;2670;42.720;23.336;2022-08-01T05:56:28;11.13;;;4.30;;
5295;SDS011;2670;42.720;23.336;2022-08-01T05:58:57;6.03;;;4.30;;
5295;SDS011;2670;42.720;23.336;2022-08-01T06:01:23;7.63;;;4.40;;
5295;SDS011;2670;42.720;23.336;2022-08-01T06:03:50;4.30;;;3.90;;
5295;SDS011;2670;42.720;23.336;2022-08-01T06:06:17;5.03;;;3.70;;
5295;SDS011;2670;42.720;23.336;2022-08-01T06:08:44;4.30;;;3.90;;
5295;SDS011;2670;42.720;23.336;2022-08-01T06:11:11;5.67;;;3.50;;
5295;SDS011;2670;42.720;23.336;2022-08-01T06:13:37;5.73;;;3.83;;
5295;SDS011;2670;42.720;23.336;2022-08-01T06:16:06;6.67;;;3.33;;
5295;SDS011;2670;42.720;23.336;2022-08-01T06:18:32;13.33;;;4.67;;
5295;SDS011;2670;42.720;23.336;2022-08-01T06:20:59;6.17;;;3.83;;
5295;SDS011;2670;42.720;23.336;2022-08-01T06:23:26;11.03;;;3.87;;
5295;SDS011;2670;42.720;23.336;2022-08-01T06:25:52;6.00;;;3.67;;
5295;SDS011;2670;42.720;23.336;2022-08-01T06:28:20;8.43;;;3.57;;
5295;SDS011;2670;42.720;23.336;2022-08-01T06:30:46;6.30;;;3.10;;
5295;SDS011;2670;42.720;23.336;2022-08-01T06:33:15;6.20;;;3.83;;
5295;SDS011;2670;42.720;23.336;2022-08-01T06:35:41;5.17;;;3.20;;
5295;SDS011;2670;42.720;23.336;2022-08-01T06:38:08;17.10;;;4.03;;
5295;SDS011;2670;42.720;23.336;2022-08-01T06:40:35;8.87;;;3.40;;
5295;SDS011;2670;42.720;23.336;2022-08-01T06:43:03;8.10;;;3.60;;
5295;SDS011;2670;42.720;23.336;2022-08-01T06:45:30;4.57;;;3.23;;
5295;SDS011;2670;42.720;23.336;2022-08-01T06:47:56;4.63;;;3.60;;
5295;SDS011;2670;42.720;23.336;2022-08-01T06:50:25;5.30;;;3.20;;
5295;SDS011;2670;42.720;23.336;2022-08-01T06:52:51;4.30;;;3.53;;
5295;SDS011;2670;42.720;23.336;2022-08-01T06:55:18;4.10;;;3.23;;
5295;SDS011;2670;42.720;23.336;2022-08-01T06:57:46;10.90;;;3.50;;
5295;SDS011;2670;42.720;23.336;2022-08-01T07:00:14;7.03;;;4.33;;
5295;SDS011;2670;42.720;23.336;2022-08-01T07:02:43;6.53;;;3.03;;
5295;SDS011;2670;42.720;23.336;2022-08-01T07:05:10;5.03;;;3.23;;
5295;SDS011;2670;42.720;23.336;2022-08-01T07:07:38;14.77;;;3.30;;
5295;SDS011;2670;42.720;23.336;2022-08-01T07:10:05;6.13;;;3.93;;
5295;SDS011;2670;42.720;23.336;2022-08-01T07:12:33;10.43;;;2.90;;
5295;SDS011;2670;42.720;23.336;2022-08-01T07:15:02;4.50;;;3.40;;
5295;SDS011;2670;42.720;23.336;2022-08-01T07:17:29;3.20;;;2.90;;
5295;SDS011;2670;42.720;23.336;2022-08-01T07:19:56;5.00;;;2.70;;
5295;SDS011;2670;42.720;23.336;2022-08-01T07:22:22;4.07;;;3.47;;
5295;SDS011;2670;42.720;23.336;2022-08-01T07:24:50;14.60;;;3.40;;
5295;SDS011;2670;42.720;23.336;2022-08-01T07:27:17;6.20;;;2.80;;
5295;SDS011;2670;42.720;23.336;2022-08-01T07:29:44;8.90;;;3.60;;
5295;SDS011;2670;42.720;23.336;2022-08-01T07:32:10;4.50;;;3.37;;
5295;SDS011;2670;42.720;23.336;2022-08-01T07:34:37;5.40;;;3.40;;
5295;SDS011;2670;42.720;23.336;2022-08-01T07:37:04;5.33;;;3.10;;
5295;SDS011;2670;42.720;23.336;2022-08-01T07:39:31;4.73;;;3.10;;
5295;SDS011;2670;42.720;23.336;2022-08-01T07:41:59;13.70;;;3.63;;
5295;SDS011;2670;42.720;23.336;2022-08-01T07:44:26;9.40;;;3.37;;
5295;SDS011;2670;42.720;23.336;2022-08-01T07:46:53;5.20;;;3.10;;
5295;SDS011;2670;42.720;23.336;2022-08-01T07:49:19;7.93;;;3.10;;
5295;SDS011;2670;42.720;23.336;2022-08-01T07:51:46;10.20;;;3.00;;
5295;SDS011;2670;42.720;23.336;2022-08-01T07:54:13;5.87;;;3.20;;
5295;SDS011;2670;42.720;23.336;2022-08-01T07:56:40;5.40;;;2.97;;
5295;SDS011;2670;42.720;23.336;2022-08-01T07:59:08;12.57;;;3.40;;
5295;SDS011;2670;42.720;23.336;2022-08-01T08:01:35;5.83;;;3.37;;
5295;SDS011;2670;42.720;23.336;2022-08-01T08:04:01;4.20;;;3.17;;
5295;SDS011;2670;42.720;23.336;2022-08-01T08:06:28;3.20;;;2.90;;
5295;SDS011;2670;42.720;23.336;2022-08-01T08:08:55;4.30;;;2.60;;
5295;SDS011;2670;42.720;23.336;2022-08-01T08:11:21;3.53;;;3.23;;
5295;SDS011;2670;42.720;23.336;2022-08-01T08:13:48;9.53;;;2.90;;
5295;SDS011;2670;42.720;23.336;2022-08-01T08:16:16;9.03;;;3.00;;
5295;SDS011;2670;42.720;23.336;2022-08-01T08:18:43;6.60;;;3.53;;
5295;SDS011;2670;42.720;23.336;2022-08-01T08:21:10;12.50;;;3.23;;
5295;SDS011;2670;42.720;23.336;2022-08-01T08:23:36;4.97;;;3.20;;
5295;SDS011;2670;42.720;23.336;2022-08-01T08:26:20;7.17;;;3.20;;
5295;SDS011;2670;42.720;23.336;2022-08-01T08:28:48;6.17;;;3.97;;
5295;SDS011;2670;42.720;23.336;2022-08-01T08:31:16;5.17;;;3.23;;
5295;SDS011;2670;42.720;23.336;2022-08-01T08:33:43;6.37;;;3.00;;
5295;SDS011;2670;42.720;23.336;2022-08-01T08:36:10;5.33;;;2.87;;
5295;SDS011;2670;42.720;23.336;2022-08-01T08:38:37;7.00;;;3.20;;
5295;SDS011;2670;42.720;23.336;2022-08-01T08:41:03;6.50;;;3.40;;
5295;SDS011;2670;42.720;23.336;2022-08-01T08:43:31;7.70;;;2.97;;
5295;SDS011;2670;42.720;23.336;2022-08-01T08:45:57;10.23;;;3.57;;
5295;SDS011;2670;42.720;23.336;2022-08-01T08:48:27;4.00;;;3.03;;
5295;SDS011;2670;42.720;23.336;2022-08-01T08:50:55;9.47;;;3.50;;
5295;SDS011;2670;42.720;23.336;2022-08-01T08:53:25;8.20;;;3.00;;
5295;SDS011;2670;42.720;23.336;2022-08-01T08:55:52;4.40;;;3.17;;
5295;SDS011;2670;42.720;23.336;2022-08-01T08:58:21;6.33;;;2.80;;
5295;SDS011;2670;42.720;23.336;2022-08-01T09:00:51;12.07;;;2.83;;
5295;SDS011;2670;42.720;23.336;2022-08-01T09:03:19;4.47;;;3.20;;
5295;SDS011;2670;42.720;23.336;2022-08-01T09:05:47;4.33;;;3.00;;
5295;SDS011;2670;42.720;23.336;2022-08-01T09:08:14;4.60;;;2.93;;
5295;SDS011;2670;42.720;23.336;2022-08-01T09:10:41;11.67;;;3.30;;
5295;SDS011;2670;42.720;23.336;2022-08-01T09:13:08;6.20;;;2.90;;
5295;SDS011;2670;42.720;23.336;2022-08-01T09:15:40;6.40;;;3.43;;
5295;SDS011;2670;42.720;23.336;2022-08-01T09:18:08;5.37;;;2.83;;
5295;SDS011;2670;42.720;23.336;2022-08-01T09:20:53;4.53;;;2.90;;
5295;SDS011;2670;42.720;23.336;2022-08-01T09:23:34;5.23;;;3.20;;
5295;SDS011;2670;42.720;23.336;2022-08-01T09:26:04;14.50;;;3.37;;
5295;SDS011;2670;42.720;23.336;2022-08-01T09:28:31;8.50;;;3.57;;
5295;SDS011;2670;42.720;23.336;2022-08-01T09:30:59;6.23;;;2.90;;
5295;SDS011;2670;42.720;23.336;2022-08-01T09:33:46;6.80;;;2.80;;
5295;SDS011;2670;42.720;23.336;2022-08-01T09:36:15;3.53;;;2.83;;
5295;SDS011;2670;42.720;23.336;2022-08-01T09:38:43;4.13;;;2.67;;
5295;SDS011;2670;42.720;23.336;2022-08-01T09:41:10;6.00;;;2.80;;
5295;SDS011;2670;42.720;23.336;2022-08-01T09:43:37;3.70;;;2.50;;
5295;SDS011;2670;42.720;23.336;2022-08-01T09:46:04;4.97;;;2.50;;
5295;SDS011;2670;42.720;23.336;2022-08-01T09:48:35;5.73;;;2.47;;
5295;SDS011;2670;42.720;23.336;2022-08-01T09:51:04;4.23;;;2.60;;
5295;SDS011;2670;42.720;23.336;2022-08-01T09:53:42;8.50;;;2.40;;
5295;SDS011;2670;42.720;23.336;2022-08-01T09:56:11;4.40;;;2.80;;
5295;SDS011;2670;42.720;23.336;2022-08-01T09:58:48;8.70;;;2.90;;
5295;SDS011;2670;42.720;23.336;2022-08-01T10:01:20;5.37;;;2.97;;
5295;SDS011;2670;42.720;23.336;2022-08-01T10:03:47;4.60;;;2.90;;
5295;SDS011;2670;42.720;23.336;2022-08-01T10:06:31;5.33;;;3.17;;
5295;SDS011;2670;42.720;23.336;2022-08-01T10:08:59;5.27;;;3.00;;
5295;SDS011;2670;42.720;23.336;2022-08-01T10:11:26;4.20;;;3.07;;
5295;SDS011;2670;42.720;23.336;2022-08-01T10:13:54;6.43;;;3.63;;
5295;SDS011;2670;42.720;23.336;2022-08-01T10:16:22;10.57;;;3.40;;
5295;SDS011;2670;42.720;23.336;2022-08-01T10:18:50;4.40;;;3.10;;
5295;SDS011;2670;42.720;23.336;2022-08-01T10:21:18;12.07;;;3.50;;
5295;SDS011;2670;42.720;23.336;2022-08-01T10:23:45;8.97;;;3.37;;
5295;SDS011;2670;42.720;23.336;2022-08-01T10:26:14;3.43;;;2.73;;
5295;SDS011;2670;42.720;23.336;2022-08-01T10:28:42;6.43;;;2.40;;
5295;SDS011;2670;42.720;23.336;2022-08-01T10:31:11;5.53;;;2.90;;
5295;SDS011;2670;42.720;23.336;2022-08-01T10:33:37;5.10;;;2.80;;
5295;SDS011;2670;42.720;23.336;2022-08-01T10:36:06;5.53;;;2.90;;
5295;SDS011;2670;42.720;23.336;2022-08-01T10:38:33;2.40;;;2.17;;
5295;SDS011;2670;42.720;23.336;2022-08-01T10:41:00;10.87;;;3.30;;
5295;SDS011;2670;42.720;23.336;2022-08-01T10:43:30;3.43;;;2.67;;
5295;SDS011;2670;42.720;23.336;2022-08-01T10:45:57;6.80;;;2.73;;
5295;SDS011;2670;42.720;23.336;2022-08-01T10:48:26;3.33;;;2.53;;
5295;SDS011;2670;42.720;23.336;2022-08-01T10:50:57;4.80;;;2.80;;
5295;SDS011;2670;42.720;23.336;2022-08-01T10:53:26;2.80;;;2.60;;
5295;SDS011;2670;42.720;23.336;2022-08-01T10:55:57;4.50;;;3.10;;
5295;SDS011;2670;42.720;23.336;2022-08-01T10:58:26;4.00;;;2.47;;
5295;SDS011;2670;42.720;23.336;2022-08-01T11:03:42;5.73;;;3.20;;
5295;SDS011;2670;42.720;23.336;2022-08-01T11:06:15;5.20;;;3.40;;
5295;SDS011;2670;42.720;23.336;2022-08-01T11:08:50;6.97;;;2.73;;
5295;SDS011;2670;42.720;23.336;2022-08-01T11:11:19;6.27;;;3.20;;
5295;SDS011;2670;42.720;23.336;2022-08-01T11:16:34;12.50;;;3.23;;
5295;SDS011;2670;42.720;23.336;2022-08-01T11:19:03;8.57;;;3.60;;
5295;SDS011;2670;42.720;23.336;2022-08-01T11:27:25;3.60;;;3.27;;
5295;SDS011;2670;42.720;23.336;2022-08-01T11:32:53;5.00;;;3.07;;
5295;SDS011;2670;42.720;23.336;2022-08-01T11:35:21;3.90;;;3.50;;
5295;SDS011;2670;42.720;23.336;2022-08-01T11:37:50;10.70;;;3.50;;
5295;SDS011;2670;42.720;23.336;2022-08-01T11:40:18;6.03;;;3.37;;
5295;SDS011;2670;42.720;23.336;2022-08-01T11:42:46;3.23;;;2.93;;
5295;SDS011;2670;42.720;23.336;2022-08-01T11:45:13;3.20;;;2.90;;
5295;SDS011;2670;42.720;23.336;2022-08-01T11:47:44;3.90;;;2.80;;
5295;SDS011;2670;42.720;23.336;2022-08-01T11:50:32;12.60;;;3.10;;
5295;SDS011;2670;42.720;23.336;2022-08-01T11:53:01;4.80;;;3.13;;
5295;SDS011;2670;42.720;23.336;2022-08-01T11:55:30;5.93;;;3.13;;
5295;SDS011;2670;42.720;23.336;2022-08-01T11:58:00;5.10;;;2.83;;
5295;SDS011;2670;42.720;23.336;2022-08-01T12:00:27;8.33;;;3.37;;
5295;SDS011;2670;42.720;23.336;2022-08-01T12:02:56;6.97;;;4.20;;
5295;SDS011;2670;42.720;23.336;2022-08-01T12:05:25;7.03;;;3.93;;
5295;SDS011;2670;42.720;23.336;2022-08-01T12:07:55;3.70;;;3.20;;
5295;SDS011;2670;42.720;23.336;2022-08-01T12:10:23;6.97;;;3.33;;
5295;SDS011;2670;42.720;23.336;2022-08-01T12:12:51;3.53;;;3.23;;
5295;SDS011;2670;42.720;23.336;2022-08-01T12:15:20;5.93;;;3.30;;
5295;SDS011;2670;42.720;23.336;2022-08-01T12:17:49;4.03;;;3.30;;
5295;SDS011;2670;42.720;23.336;2022-08-01T12:20:19;4.37;;;3.30;;
5295;SDS011;2670;42.720;23.336;2022-08-01T12:22:52;6.73;;;3.70;;
5295;SDS011;2670;42.720;23.336;2022-08-01T12:25:20;7.83;;;3.30;;
5295;SDS011;2670;42.720;23.336;2022-08-01T12:27:47;3.70;;;3.30;;
5295;SDS011;2670;42.720;23.336;2022-08-01T12:30:16;6.20;;;3.40;;
5295;SDS011;2670;42.720;23.336;2022-08-01T12:32:44;6.10;;;3.40;;
5295;SDS011;2670;42.720;23.336;2022-08-01T12:35:13;3.10;;;2.77;;
5295;SDS011;2670;42.720;23.336;2022-08-01T12:37:42;3.73;;;3.43;;
5295;SDS011;2670;42.720;23.336;2022-08-01T12:40:14;8.23;;;3.50;;
5295;SDS011;2670;42.720;23.336;2022-08-01T12:42:45;8.87;;;3.77;;
5295;SDS011;2670;42.720;23.336;2022-08-01T12:45:14;3.30;;;3.00;;
5295;SDS011;2670;42.720;23.336;2022-08-01T12:47:42;3.87;;;2.87;;
5295;SDS011;2670;42.720;23.336;2022-08-01T12:50:11;6.40;;;3.40;;
5295;SDS011;2670;42.720;23.336;2022-08-01T12:52:39;3.80;;;3.40;;
5295;SDS011;2670;42.720;23.336;2022-08-01T12:55:07;3.70;;;3.40;;
5295;SDS011;2670;42.720;23.336;2022-08-01T12:57:39;3.93;;;3.10;;
5295;SDS011;2670;42.720;23.336;2022-08-01T13:00:10;3.20;;;2.90;;
5295;SDS011;2670;42.720;23.336;2022-08-01T13:02:39;5.10;;;3.20;;
5295;SDS011;2670;42.720;23.336;2022-08-01T13:05:07;3.43;;;3.13;;
5295;SDS011;2670;42.720;23.336;2022-08-01T13:07:40;3.77;;;3.07;;
5295;SDS011;2670;42.720;23.336;2022-08-01T13:10:08;12.13;;;3.50;;
5295;SDS011;2670;42.720;23.336;2022-08-01T13:12:36;7.33;;;2.90;;
5295;SDS011;2670;42.720;23.336;2022-08-01T13:15:18;4.00;;;3.20;;
5295;SDS011;2670;42.720;23.336;2022-08-01T13:17:47;3.60;;;2.60;;
5295;SDS011;2670;42.720;23.336;2022-08-01T13:20:23;5.43;;;3.27;;
5295;SDS011;2670;42.720;23.336;2022-08-01T13:22:54;3.43;;;3.13;;
5295;SDS011;2670;42.720;23.336;2022-08-01T13:25:21;3.00;;;2.70;;
5295;SDS011;2670;42.720;23.336;2022-08-01T13:27:48;3.23;;;2.90;;
5295;SDS011;2670;42.720;23.336;2022-08-01T13:30:15;3.70;;;2.83;;
5295;SDS011;2670;42.720;23.336;2022-08-01T13:32:56;4.30;;;3.03;;
5295;SDS011;2670;42.720;23.336;2022-08-01T13:35:23;6.20;;;3.23;;
5295;SDS011;2670;42.720;23.336;2022-08-01T13:37:50;4.50;;;2.97;;
5295;SDS011;2670;42.720;23.336;2022-08-01T13:40:23;5.53;;;3.27;;
5295;SDS011;2670;42.720;23.336;2022-08-01T13:42:51;3.67;;;2.83;;
5295;SDS011;2670;42.720;23.336;2022-08-01T13:45:18;6.80;;;2.70;;
5295;SDS011;2670;42.720;23.336;2022-08-01T13:47:47;4.80;;;2.77;;
5295;SDS011;2670;42.720;23.336;2022-08-01T13:50:13;3.30;;;2.80;;
5295;SDS011;2670;42.720;23.336;2022-08-01T13:52:40;4.27;;;3.40;;
5295;SDS011;2670;42.720;23.336;2022-08-01T13:55:07;5.60;;;3.27;;
5295;SDS011;2670;42.720;23.336;2022-08-01T13:57:34;4.63;;;2.67;;
5295;SDS011;2670;42.720;23.336;2022-08-01T14:00:01;4.63;;;2.77;;
5295;SDS011;2670;42.720;23.336;2022-08-01T14:02:29;4.07;;;2.73;;
5295;SDS011;2670;42.720;23.336;2022-08-01T14:04:57;6.27;;;2.50;;
5295;SDS011;2670;42.720;23.336;2022-08-01T14:07:24;2.80;;;2.60;;
5295;SDS011;2670;42.720;23.336;2022-08-01T14:09:50;4.27;;;3.30;;
5295;SDS011;2670;42.720;23.336;2022-08-01T14:12:17;4.87;;;3.03;;
5295;SDS011;2670;42.720;23.336;2022-08-01T14:14:44;5.23;;;3.17;;
5295;SDS011;2670;42.720;23.336;2022-08-01T14:17:11;3.10;;;2.80;;
5295;SDS011;2670;42.720;23.336;2022-08-01T14:19:38;5.03;;;3.00;;
5295;SDS011;2670;42.720;23.336;2022-08-01T14:22:06;4.93;;;2.30;;
5295;SDS011;2670;42.720;23.336;2022-08-01T14:24:32;7.93;;;2.87;;
5295;SDS011;2670;42.720;23.336;2022-08-01T14:26:59;2.67;;;2.40;;
5295;SDS011;2670;42.720;23.336;2022-08-01T14:29:27;2.70;;;2.50;;
5295;SDS011;2670;42.720;23.336;2022-08-01T14:31:53;13.63;;;3.40;;
5295;SDS011;2670;42.720;23.336;2022-08-01T14:34:20;4.90;;;2.80;;
5295;SDS011;2670;42.720;23.336;2022-08-01T14:36:47;3.20;;;2.73;;
5295;SDS011;2670;42.720;23.336;2022-08-01T14:39:15;7.00;;;2.67;;
5295;SDS011;2670;42.720;23.336;2022-08-01T14:41:42;4.53;;;2.80;;
5295;SDS011;2670;42.720;23.336;2022-08-01T14:44:09;7.50;;;2.77;;
5295;SDS011;2670;42.720;23.336;2022-08-01T14:46:35;2.53;;;2.33;;
5295;SDS011;2670;42.720;23.336;2022-08-01T14:49:02;3.93;;;2.40;;
5295;SDS011;2670;42.720;23.336;2022-08-01T14:51:29;2.73;;;2.20;;
5295;SDS011;2670;42.720;23.336;2022-08-01T14:53:58;5.70;;;2.60;;
5295;SDS011;2670;42.720;23.336;2022-08-01T14:56:26;5.63;;;2.47;;
5295;SDS011;2670;42.720;23.336;2022-08-01T14:58:53;3.27;;;2.47;;
5295;SDS011;2670;42.720;23.336;2022-08-01T15:01:20;2.90;;;2.60;;
5295;SDS011;2670;42.720;23.336;2022-08-01T15:03:47;8.03;;;2.80;;
5295;SDS011;2670;42.720;23.336;2022-08-01T15:06:15;2.60;;;2.40;;
5295;SDS011;2670;42.720;23.336;2022-08-01T15:08:41;2.30;;;1.97;;
5295;SDS011;2670;42.720;23.336;2022-08-01T15:11:09;2.73;;;2.30;;
5295;SDS011;2670;42.720;23.336;2022-08-01T15:13:37;3.53;;;2.70;;
5295;SDS011;2670;42.720;23.336;2022-08-01T15:16:04;3.20;;;2.90;;
5295;SDS011;2670;42.720;23.336;2022-08-01T15:18:31;15.67;;;14.03;;
5295;SDS011;2670;42.720;23.336;2022-08-01T15:20:58;3.30;;;2.20;;